sensor_id;sensor_type;location;lat;lon;timestamp;P1;durP1;ratioP1;P2;durP2;ratioP2
78752;SDS011;68072;51.688;7.842;2023-04-15T00:00:35;4.75;;;3.85;;
78752;SDS011;68072;51.688;7.842;2023-04-15T00:03:01;5.78;;;4.30;;
78752;SDS011;68072;51.688;7.842;2023-04-15T00:05:28;6.50;;;4.30;;
78752;SDS011;68072;51.688;7.842;2023-04-15T00:07:54;5.90;;;3.97;;
78752;SDS011;68072;51.688;7.842;2023-04-15T00:10:19;6.75;;;3.88;;
78752;SDS011;68072;51.688;7.842;2023-04-15T00:12:45;5.60;;;3.83;;
78752;SDS011;68072;51.688;7.842;2023-04-15T00:15:11;7.47;;;4.00;;
78752;SDS011;68072;51.688;7.842;2023-04-15T00:17:36;8.60;;;4.38;;
78752;SDS011;68072;51.688;7.842;2023-04-15T00:20:03;8.07;;;3.97;;
78752;SDS011;68072;51.688;7.842;2023-04-15T00:22:30;7.40;;;4.10;;
78752;SDS011;68072;51.688;7.842;2023-04-15T00:24:56;5.78;;;4.13;;
78752;SDS011;68072;51.688;7.842;2023-04-15T00:27:22;7.05;;;3.78;;
78752;SDS011;68072;51.688;7.842;2023-04-15T00:29:47;7.50;;;4.57;;
78752;SDS011;68072;51.688;7.842;2023-04-15T00:32:18;6.53;;;3.97;;
78752;SDS011;68072;51.688;7.842;2023-04-15T00:34:44;7.18;;;4.47;;
78752;SDS011;68072;51.688;7.842;2023-04-15T00:37:10;7.70;;;4.18;;
78752;SDS011;68072;51.688;7.842;2023-04-15T00:39:35;7.43;;;4.55;;
78752;SDS011;68072;51.688;7.842;2023-04-15T00:42:01;7.40;;;4.35;;
78752;SDS011;68072;51.688;7.842;2023-04-15T00:44:28;9.38;;;4.57;;
78752;SDS011;68072;51.688;7.842;2023-04-15T00:46:54;7.03;;;4.50;;
78752;SDS011;68072;51.688;7.842;2023-04-15T00:49:19;7.03;;;4.30;;
78752;SDS011;68072;51.688;7.842;2023-04-15T00:51:45;7.50;;;4.65;;
78752;SDS011;68072;51.688;7.842;2023-04-15T00:54:10;7.05;;;4.65;;
78752;SDS011;68072;51.688;7.842;2023-04-15T00:56:36;6.60;;;4.50;;
78752;SDS011;68072;51.688;7.842;2023-04-15T00:59:05;6.45;;;4.15;;
78752;SDS011;68072;51.688;7.842;2023-04-15T01:01:33;6.38;;;4.15;;
78752;SDS011;68072;51.688;7.842;2023-04-15T01:03:59;6.57;;;4.40;;
78752;SDS011;68072;51.688;7.842;2023-04-15T01:06:25;5.60;;;3.90;;
78752;SDS011;68072;51.688;7.842;2023-04-15T01:08:52;6.57;;;4.20;;
78752;SDS011;68072;51.688;7.842;2023-04-15T01:11:18;8.65;;;4.28;;
78752;SDS011;68072;51.688;7.842;2023-04-15T01:13:43;7.32;;;4.63;;
78752;SDS011;68072;51.688;7.842;2023-04-15T01:16:09;7.97;;;5.07;;
78752;SDS011;68072;51.688;7.842;2023-04-15T01:18:35;5.90;;;4.43;;
78752;SDS011;68072;51.688;7.842;2023-04-15T01:21:01;7.10;;;4.30;;
78752;SDS011;68072;51.688;7.842;2023-04-15T01:23:28;6.05;;;4.55;;
78752;SDS011;68072;51.688;7.842;2023-04-15T01:25:53;8.82;;;5.13;;
78752;SDS011;68072;51.688;7.842;2023-04-15T01:28:20;10.63;;;4.63;;
78752;SDS011;68072;51.688;7.842;2023-04-15T01:30:45;8.35;;;4.57;;
78752;SDS011;68072;51.688;7.842;2023-04-15T01:33:11;5.97;;;4.28;;
78752;SDS011;68072;51.688;7.842;2023-04-15T01:35:36;9.75;;;4.45;;
78752;SDS011;68072;51.688;7.842;2023-04-15T01:38:04;6.03;;;4.18;;
78752;SDS011;68072;51.688;7.842;2023-04-15T01:40:31;11.05;;;4.82;;
78752;SDS011;68072;51.688;7.842;2023-04-15T01:42:58;10.57;;;4.22;;
78752;SDS011;68072;51.688;7.842;2023-04-15T01:45:23;6.90;;;4.15;;
78752;SDS011;68072;51.688;7.842;2023-04-15T01:47:49;7.05;;;4.35;;
78752;SDS011;68072;51.688;7.842;2023-04-15T01:50:15;6.32;;;4.63;;
78752;SDS011;68072;51.688;7.842;2023-04-15T01:52:40;7.70;;;5.10;;
78752;SDS011;68072;51.688;7.842;2023-04-15T01:55:06;5.88;;;3.83;;
78752;SDS011;68072;51.688;7.842;2023-04-15T01:59:58;7.55;;;4.40;;
78752;SDS011;68072;51.688;7.842;2023-04-15T02:02:23;6.78;;;4.22;;
78752;SDS011;68072;51.688;7.842;2023-04-15T02:04:49;9.32;;;4.65;;
78752;SDS011;68072;51.688;7.842;2023-04-15T02:07:15;8.43;;;4.68;;
78752;SDS011;68072;51.688;7.842;2023-04-15T02:09:40;7.60;;;4.82;;
78752;SDS011;68072;51.688;7.842;2023-04-15T02:12:05;8.82;;;4.53;;
78752;SDS011;68072;51.688;7.842;2023-04-15T02:14:31;8.25;;;4.78;;
78752;SDS011;68072;51.688;7.842;2023-04-15T02:16:56;8.98;;;5.00;;
78752;SDS011;68072;51.688;7.842;2023-04-15T02:19:22;9.55;;;5.03;;
78752;SDS011;68072;51.688;7.842;2023-04-15T02:21:47;7.95;;;4.85;;
78752;SDS011;68072;51.688;7.842;2023-04-15T02:24:13;9.13;;;5.10;;
78752;SDS011;68072;51.688;7.842;2023-04-15T02:26:38;10.77;;;5.40;;
78752;SDS011;68072;51.688;7.842;2023-04-15T02:29:03;7.95;;;5.15;;
78752;SDS011;68072;51.688;7.842;2023-04-15T02:31:29;8.38;;;4.97;;
78752;SDS011;68072;51.688;7.842;2023-04-15T02:33:54;8.40;;;5.50;;
78752;SDS011;68072;51.688;7.842;2023-04-15T02:36:20;7.25;;;4.97;;
78752;SDS011;68072;51.688;7.842;2023-04-15T02:38:45;9.38;;;5.43;;
78752;SDS011;68072;51.688;7.842;2023-04-15T02:41:11;8.73;;;5.47;;
78752;SDS011;68072;51.688;7.842;2023-04-15T02:43:36;8.88;;;5.45;;
78752;SDS011;68072;51.688;7.842;2023-04-15T02:46:03;10.38;;;6.13;;
78752;SDS011;68072;51.688;7.842;2023-04-15T02:48:29;8.18;;;5.53;;
78752;SDS011;68072;51.688;7.842;2023-04-15T02:51:09;8.07;;;5.50;;
78752;SDS011;68072;51.688;7.842;2023-04-15T02:53:35;8.27;;;5.05;;
78752;SDS011;68072;51.688;7.842;2023-04-15T02:56:01;9.88;;;5.85;;
78752;SDS011;68072;51.688;7.842;2023-04-15T02:58:26;9.38;;;5.65;;
78752;SDS011;68072;51.688;7.842;2023-04-15T03:00:52;9.27;;;5.45;;
78752;SDS011;68072;51.688;7.842;2023-04-15T03:03:17;10.52;;;6.43;;
78752;SDS011;68072;51.688;7.842;2023-04-15T03:05:43;10.43;;;6.32;;
78752;SDS011;68072;51.688;7.842;2023-04-15T03:08:08;9.65;;;6.07;;
78752;SDS011;68072;51.688;7.842;2023-04-15T03:10:33;12.48;;;6.35;;
78752;SDS011;68072;51.688;7.842;2023-04-15T03:12:59;9.48;;;6.22;;
78752;SDS011;68072;51.688;7.842;2023-04-15T03:15:25;9.80;;;6.03;;
78752;SDS011;68072;51.688;7.842;2023-04-15T03:17:51;10.27;;;5.80;;
78752;SDS011;68072;51.688;7.842;2023-04-15T03:20:16;9.98;;;6.03;;
78752;SDS011;68072;51.688;7.842;2023-04-15T03:22:42;13.13;;;6.63;;
78752;SDS011;68072;51.688;7.842;2023-04-15T03:25:07;8.27;;;5.38;;
78752;SDS011;68072;51.688;7.842;2023-04-15T03:27:33;11.48;;;6.15;;
78752;SDS011;68072;51.688;7.842;2023-04-15T03:29:58;12.48;;;6.93;;
78752;SDS011;68072;51.688;7.842;2023-04-15T03:32:23;12.43;;;6.63;;
78752;SDS011;68072;51.688;7.842;2023-04-15T03:34:49;11.50;;;6.43;;
78752;SDS011;68072;51.688;7.842;2023-04-15T03:37:14;11.45;;;6.40;;
78752;SDS011;68072;51.688;7.842;2023-04-15T03:39:40;12.55;;;6.75;;
78752;SDS011;68072;51.688;7.842;2023-04-15T03:42:05;12.27;;;6.97;;
78752;SDS011;68072;51.688;7.842;2023-04-15T03:44:31;11.50;;;6.63;;
78752;SDS011;68072;51.688;7.842;2023-04-15T03:46:56;13.15;;;7.50;;
78752;SDS011;68072;51.688;7.842;2023-04-15T03:49:22;10.68;;;7.07;;
78752;SDS011;68072;51.688;7.842;2023-04-15T03:51:48;13.50;;;7.65;;
78752;SDS011;68072;51.688;7.842;2023-04-15T03:54:13;12.40;;;6.95;;
78752;SDS011;68072;51.688;7.842;2023-04-15T03:56:39;13.23;;;7.45;;
78752;SDS011;68072;51.688;7.842;2023-04-15T03:59:05;14.25;;;8.10;;
78752;SDS011;68072;51.688;7.842;2023-04-15T04:01:30;12.07;;;7.57;;
78752;SDS011;68072;51.688;7.842;2023-04-15T04:03:56;14.00;;;7.65;;
78752;SDS011;68072;51.688;7.842;2023-04-15T04:06:21;13.00;;;7.25;;
78752;SDS011;68072;51.688;7.842;2023-04-15T04:08:47;15.10;;;8.10;;
78752;SDS011;68072;51.688;7.842;2023-04-15T04:11:12;12.75;;;7.82;;
78752;SDS011;68072;51.688;7.842;2023-04-15T04:13:38;13.45;;;7.18;;
78752;SDS011;68072;51.688;7.842;2023-04-15T04:16:04;12.77;;;7.53;;
78752;SDS011;68072;51.688;7.842;2023-04-15T04:18:32;12.88;;;7.80;;
78752;SDS011;68072;51.688;7.842;2023-04-15T04:20:58;15.27;;;8.23;;
78752;SDS011;68072;51.688;7.842;2023-04-15T04:23:24;14.85;;;7.95;;
78752;SDS011;68072;51.688;7.842;2023-04-15T04:25:50;16.95;;;8.05;;
78752;SDS011;68072;51.688;7.842;2023-04-15T04:28:16;14.15;;;7.88;;
78752;SDS011;68072;51.688;7.842;2023-04-15T04:30:42;18.83;;;8.77;;
78752;SDS011;68072;51.688;7.842;2023-04-15T04:33:07;14.10;;;8.32;;
78752;SDS011;68072;51.688;7.842;2023-04-15T04:35:32;14.95;;;8.77;;
78752;SDS011;68072;51.688;7.842;2023-04-15T04:38:01;12.65;;;7.22;;
78752;SDS011;68072;51.688;7.842;2023-04-15T04:40:27;12.65;;;7.13;;
78752;SDS011;68072;51.688;7.842;2023-04-15T04:42:52;12.38;;;7.15;;
78752;SDS011;68072;51.688;7.842;2023-04-15T04:45:18;11.05;;;6.60;;
78752;SDS011;68072;51.688;7.842;2023-04-15T04:47:44;16.73;;;7.57;;
78752;SDS011;68072;51.688;7.842;2023-04-15T04:50:10;14.15;;;7.60;;
78752;SDS011;68072;51.688;7.842;2023-04-15T04:52:36;12.63;;;7.30;;
78752;SDS011;68072;51.688;7.842;2023-04-15T04:55:01;15.00;;;7.25;;
78752;SDS011;68072;51.688;7.842;2023-04-15T04:57:27;14.02;;;7.20;;
78752;SDS011;68072;51.688;7.842;2023-04-15T04:59:52;13.52;;;7.63;;
78752;SDS011;68072;51.688;7.842;2023-04-15T05:02:18;19.80;;;8.05;;
78752;SDS011;68072;51.688;7.842;2023-04-15T05:04:43;13.18;;;7.15;;
78752;SDS011;68072;51.688;7.842;2023-04-15T05:07:08;13.57;;;7.60;;
78752;SDS011;68072;51.688;7.842;2023-04-15T05:09:34;13.10;;;7.78;;
78752;SDS011;68072;51.688;7.842;2023-04-15T05:12:01;13.52;;;7.55;;
78752;SDS011;68072;51.688;7.842;2023-04-15T05:14:26;12.65;;;7.03;;
78752;SDS011;68072;51.688;7.842;2023-04-15T05:16:52;16.00;;;7.15;;
78752;SDS011;68072;51.688;7.842;2023-04-15T05:19:17;12.55;;;6.97;;
78752;SDS011;68072;51.688;7.842;2023-04-15T05:21:42;12.75;;;7.20;;
78752;SDS011;68072;51.688;7.842;2023-04-15T05:24:08;13.20;;;6.75;;
78752;SDS011;68072;51.688;7.842;2023-04-15T05:26:33;14.98;;;7.82;;
78752;SDS011;68072;51.688;7.842;2023-04-15T05:28:59;11.30;;;6.97;;
78752;SDS011;68072;51.688;7.842;2023-04-15T05:31:24;11.65;;;7.03;;
78752;SDS011;68072;51.688;7.842;2023-04-15T05:33:50;10.98;;;7.32;;
78752;SDS011;68072;51.688;7.842;2023-04-15T05:36:15;12.77;;;7.28;;
78752;SDS011;68072;51.688;7.842;2023-04-15T05:38:40;13.25;;;7.60;;
78752;SDS011;68072;51.688;7.842;2023-04-15T05:41:06;11.73;;;7.57;;
78752;SDS011;68072;51.688;7.842;2023-04-15T05:43:31;14.57;;;7.53;;
78752;SDS011;68072;51.688;7.842;2023-04-15T05:45:57;12.55;;;6.85;;
78752;SDS011;68072;51.688;7.842;2023-04-15T05:48:22;10.82;;;6.45;;
78752;SDS011;68072;51.688;7.842;2023-04-15T05:50:48;12.65;;;7.03;;
78752;SDS011;68072;51.688;7.842;2023-04-15T05:53:13;12.93;;;7.07;;
78752;SDS011;68072;51.688;7.842;2023-04-15T05:55:39;11.98;;;6.70;;
78752;SDS011;68072;51.688;7.842;2023-04-15T05:58:05;9.32;;;5.85;;
78752;SDS011;68072;51.688;7.842;2023-04-15T06:00:30;11.00;;;6.57;;
78752;SDS011;68072;51.688;7.842;2023-04-15T06:02:56;11.65;;;6.50;;
78752;SDS011;68072;51.688;7.842;2023-04-15T06:07:48;9.43;;;6.43;;
78752;SDS011;68072;51.688;7.842;2023-04-15T06:10:14;14.82;;;7.32;;
78752;SDS011;68072;51.688;7.842;2023-04-15T06:12:39;12.68;;;7.32;;
78752;SDS011;68072;51.688;7.842;2023-04-15T06:15:05;12.20;;;7.20;;
78752;SDS011;68072;51.688;7.842;2023-04-15T06:17:31;12.60;;;6.68;;
78752;SDS011;68072;51.688;7.842;2023-04-15T06:19:56;14.25;;;6.88;;
78752;SDS011;68072;51.688;7.842;2023-04-15T06:22:22;11.68;;;6.60;;
78752;SDS011;68072;51.688;7.842;2023-04-15T06:24:48;14.75;;;7.05;;
78752;SDS011;68072;51.688;7.842;2023-04-15T06:27:17;15.00;;;6.95;;
78752;SDS011;68072;51.688;7.842;2023-04-15T06:29:42;11.90;;;6.88;;
78752;SDS011;68072;51.688;7.842;2023-04-15T06:32:08;10.82;;;6.10;;
78752;SDS011;68072;51.688;7.842;2023-04-15T06:34:33;15.20;;;7.57;;
78752;SDS011;68072;51.688;7.842;2023-04-15T06:36:59;12.40;;;6.78;;
78752;SDS011;68072;51.688;7.842;2023-04-15T06:39:25;10.52;;;6.80;;
78752;SDS011;68072;51.688;7.842;2023-04-15T06:41:51;9.25;;;5.78;;
78752;SDS011;68072;51.688;7.842;2023-04-15T06:44:17;12.90;;;6.53;;
78752;SDS011;68072;51.688;7.842;2023-04-15T06:46:42;10.90;;;5.72;;
78752;SDS011;68072;51.688;7.842;2023-04-15T06:49:08;11.25;;;6.82;;
78752;SDS011;68072;51.688;7.842;2023-04-15T06:51:34;11.32;;;5.75;;
78752;SDS011;68072;51.688;7.842;2023-04-15T06:54:00;11.43;;;6.60;;
78752;SDS011;68072;51.688;7.842;2023-04-15T06:56:26;10.73;;;6.05;;
78752;SDS011;68072;51.688;7.842;2023-04-15T06:58:52;11.20;;;6.57;;
78752;SDS011;68072;51.688;7.842;2023-04-15T07:01:17;10.57;;;5.97;;
78752;SDS011;68072;51.688;7.842;2023-04-15T07:03:43;9.07;;;6.15;;
78752;SDS011;68072;51.688;7.842;2023-04-15T07:06:08;13.52;;;7.13;;
78752;SDS011;68072;51.688;7.842;2023-04-15T07:08:34;11.48;;;6.10;;
78752;SDS011;68072;51.688;7.842;2023-04-15T07:10:59;10.38;;;6.35;;
78752;SDS011;68072;51.688;7.842;2023-04-15T07:13:25;14.30;;;6.38;;
78752;SDS011;68072;51.688;7.842;2023-04-15T07:15:51;12.65;;;6.72;;
78752;SDS011;68072;51.688;7.842;2023-04-15T07:18:16;10.68;;;6.68;;
78752;SDS011;68072;51.688;7.842;2023-04-15T07:20:42;11.27;;;6.65;;
78752;SDS011;68072;51.688;7.842;2023-04-15T07:23:07;12.45;;;6.72;;
78752;SDS011;68072;51.688;7.842;2023-04-15T07:25:33;11.05;;;6.75;;
78752;SDS011;68072;51.688;7.842;2023-04-15T07:27:58;13.15;;;6.78;;
78752;SDS011;68072;51.688;7.842;2023-04-15T07:30:24;10.13;;;6.22;;
78752;SDS011;68072;51.688;7.842;2023-04-15T07:32:50;12.02;;;7.18;;
78752;SDS011;68072;51.688;7.842;2023-04-15T07:35:15;11.93;;;6.63;;
78752;SDS011;68072;51.688;7.842;2023-04-15T07:37:40;17.13;;;7.53;;
78752;SDS011;68072;51.688;7.842;2023-04-15T07:40:07;12.30;;;6.82;;
78752;SDS011;68072;51.688;7.842;2023-04-15T07:42:33;15.02;;;7.32;;
78752;SDS011;68072;51.688;7.842;2023-04-15T07:44:59;14.48;;;8.85;;
78752;SDS011;68072;51.688;7.842;2023-04-15T07:47:24;13.30;;;7.47;;
78752;SDS011;68072;51.688;7.842;2023-04-15T07:49:51;22.17;;;8.52;;
78752;SDS011;68072;51.688;7.842;2023-04-15T07:52:17;13.20;;;7.90;;
78752;SDS011;68072;51.688;7.842;2023-04-15T07:54:42;12.15;;;7.45;;
78752;SDS011;68072;51.688;7.842;2023-04-15T07:57:08;12.90;;;8.35;;
78752;SDS011;68072;51.688;7.842;2023-04-15T07:59:33;11.98;;;7.55;;
78752;SDS011;68072;51.688;7.842;2023-04-15T08:01:58;13.48;;;7.57;;
78752;SDS011;68072;51.688;7.842;2023-04-15T08:04:24;11.55;;;8.13;;
78752;SDS011;68072;51.688;7.842;2023-04-15T08:06:49;13.63;;;7.70;;
78752;SDS011;68072;51.688;7.842;2023-04-15T08:09:16;13.27;;;7.80;;
78752;SDS011;68072;51.688;7.842;2023-04-15T08:11:41;12.18;;;7.93;;
78752;SDS011;68072;51.688;7.842;2023-04-15T08:14:07;13.70;;;8.38;;
78752;SDS011;68072;51.688;7.842;2023-04-15T08:16:32;10.65;;;7.10;;
78752;SDS011;68072;51.688;7.842;2023-04-15T08:18:58;12.70;;;7.88;;
78752;SDS011;68072;51.688;7.842;2023-04-15T08:21:23;15.27;;;9.50;;
78752;SDS011;68072;51.688;7.842;2023-04-15T08:23:49;16.67;;;9.48;;
78752;SDS011;68072;51.688;7.842;2023-04-15T08:26:16;15.52;;;9.32;;
78752;SDS011;68072;51.688;7.842;2023-04-15T08:28:42;16.10;;;9.80;;
78752;SDS011;68072;51.688;7.842;2023-04-15T08:31:08;12.40;;;8.00;;
78752;SDS011;68072;51.688;7.842;2023-04-15T08:33:34;12.75;;;8.32;;
78752;SDS011;68072;51.688;7.842;2023-04-15T08:35:59;16.05;;;9.90;;
78752;SDS011;68072;51.688;7.842;2023-04-15T08:38:24;14.77;;;9.07;;
78752;SDS011;68072;51.688;7.842;2023-04-15T08:40:50;15.02;;;9.25;;
78752;SDS011;68072;51.688;7.842;2023-04-15T08:45:52;14.13;;;8.63;;
78752;SDS011;68072;51.688;7.842;2023-04-15T08:48:18;14.07;;;8.85;;
78752;SDS011;68072;51.688;7.842;2023-04-15T08:50:44;15.25;;;8.95;;
78752;SDS011;68072;51.688;7.842;2023-04-15T08:53:11;17.40;;;8.68;;
78752;SDS011;68072;51.688;7.842;2023-04-15T08:55:38;16.15;;;8.43;;
78752;SDS011;68072;51.688;7.842;2023-04-15T08:58:08;16.50;;;9.13;;
78752;SDS011;68072;51.688;7.842;2023-04-15T09:00:34;15.52;;;9.45;;
78752;SDS011;68072;51.688;7.842;2023-04-15T09:03:00;13.38;;;8.57;;
78752;SDS011;68072;51.688;7.842;2023-04-15T09:05:25;12.40;;;8.35;;
78752;SDS011;68072;51.688;7.842;2023-04-15T09:07:51;13.85;;;8.48;;
78752;SDS011;68072;51.688;7.842;2023-04-15T09:10:16;12.00;;;7.70;;
78752;SDS011;68072;51.688;7.842;2023-04-15T09:12:42;12.10;;;7.03;;
78752;SDS011;68072;51.688;7.842;2023-04-15T09:15:10;11.05;;;7.00;;
78752;SDS011;68072;51.688;7.842;2023-04-15T09:17:41;10.45;;;6.53;;
78752;SDS011;68072;51.688;7.842;2023-04-15T09:20:11;11.20;;;5.88;;
78752;SDS011;68072;51.688;7.842;2023-04-15T09:22:39;9.77;;;5.50;;
78752;SDS011;68072;51.688;7.842;2023-04-15T09:25:26;10.70;;;6.50;;
78752;SDS011;68072;51.688;7.842;2023-04-15T09:28:02;9.30;;;5.75;;
78752;SDS011;68072;51.688;7.842;2023-04-15T09:30:27;9.18;;;5.80;;
78752;SDS011;68072;51.688;7.842;2023-04-15T09:32:57;10.82;;;6.15;;
78752;SDS011;68072;51.688;7.842;2023-04-15T09:35:24;10.23;;;5.95;;
78752;SDS011;68072;51.688;7.842;2023-04-15T09:37:50;12.45;;;6.65;;
78752;SDS011;68072;51.688;7.842;2023-04-15T09:42:57;11.73;;;5.55;;
78752;SDS011;68072;51.688;7.842;2023-04-15T09:45:26;9.68;;;5.90;;
78752;SDS011;68072;51.688;7.842;2023-04-15T09:47:52;12.20;;;6.15;;
78752;SDS011;68072;51.688;7.842;2023-04-15T09:50:18;9.45;;;5.70;;
78752;SDS011;68072;51.688;7.842;2023-04-15T09:52:44;10.77;;;6.18;;
78752;SDS011;68072;51.688;7.842;2023-04-15T09:55:10;11.35;;;6.78;;
78752;SDS011;68072;51.688;7.842;2023-04-15T09:57:37;13.75;;;7.10;;
78752;SDS011;68072;51.688;7.842;2023-04-15T10:00:05;11.13;;;6.53;;
78752;SDS011;68072;51.688;7.842;2023-04-15T10:02:33;12.88;;;7.03;;
78752;SDS011;68072;51.688;7.842;2023-04-15T10:05:00;17.40;;;6.78;;
78752;SDS011;68072;51.688;7.842;2023-04-15T10:09:51;9.93;;;5.90;;
78752;SDS011;68072;51.688;7.842;2023-04-15T10:12:17;10.75;;;5.93;;
78752;SDS011;68072;51.688;7.842;2023-04-15T10:14:43;13.77;;;7.25;;
78752;SDS011;68072;51.688;7.842;2023-04-15T10:17:12;13.43;;;7.65;;
78752;SDS011;68072;51.688;7.842;2023-04-15T10:19:37;10.43;;;6.63;;
78752;SDS011;68072;51.688;7.842;2023-04-15T10:22:03;16.50;;;7.18;;
78752;SDS011;68072;51.688;7.842;2023-04-15T10:24:32;11.38;;;6.63;;
78752;SDS011;68072;51.688;7.842;2023-04-15T10:26:58;14.65;;;7.40;;
78752;SDS011;68072;51.688;7.842;2023-04-15T10:29:24;11.27;;;6.63;;
78752;SDS011;68072;51.688;7.842;2023-04-15T10:31:53;10.88;;;6.22;;
78752;SDS011;68072;51.688;7.842;2023-04-15T10:34:20;11.80;;;6.03;;
78752;SDS011;68072;51.688;7.842;2023-04-15T10:36:46;10.98;;;6.55;;
78752;SDS011;68072;51.688;7.842;2023-04-15T10:42:32;10.27;;;6.63;;
78752;SDS011;68072;51.688;7.842;2023-04-15T10:44:51;14.00;;;6.50;;
78752;SDS011;68072;51.688;7.842;2023-04-15T10:47:21;12.60;;;6.35;;
78752;SDS011;68072;51.688;7.842;2023-04-15T10:49:56;9.18;;;6.25;;
78752;SDS011;68072;51.688;7.842;2023-04-15T10:52:23;11.57;;;6.00;;
78752;SDS011;68072;51.688;7.842;2023-04-15T10:54:53;10.18;;;6.40;;
78752;SDS011;68072;51.688;7.842;2023-04-15T10:57:37;11.63;;;6.40;;
78752;SDS011;68072;51.688;7.842;2023-04-15T11:00:10;14.10;;;7.75;;
78752;SDS011;68072;51.688;7.842;2023-04-15T11:02:38;11.85;;;6.45;;
78752;SDS011;68072;51.688;7.842;2023-04-15T11:05:11;12.05;;;7.07;;
78752;SDS011;68072;51.688;7.842;2023-04-15T11:12:38;12.80;;;6.78;;
78752;SDS011;68072;51.688;7.842;2023-04-15T11:17:52;11.98;;;7.22;;
78752;SDS011;68072;51.688;7.842;2023-04-15T11:20:18;11.75;;;6.82;;
78752;SDS011;68072;51.688;7.842;2023-04-15T11:22:47;12.80;;;6.20;;
78752;SDS011;68072;51.688;7.842;2023-04-15T11:25:29;14.93;;;7.50;;
78752;SDS011;68072;51.688;7.842;2023-04-15T11:27:57;13.65;;;7.00;;
78752;SDS011;68072;51.688;7.842;2023-04-15T11:30:24;10.77;;;7.07;;
78752;SDS011;68072;51.688;7.842;2023-04-15T11:32:51;8.95;;;5.68;;
78752;SDS011;68072;51.688;7.842;2023-04-15T11:35:18;9.63;;;5.95;;
78752;SDS011;68072;51.688;7.842;2023-04-15T11:37:44;12.00;;;6.07;;
78752;SDS011;68072;51.688;7.842;2023-04-15T11:40:10;11.50;;;6.35;;
78752;SDS011;68072;51.688;7.842;2023-04-15T11:42:36;13.60;;;7.20;;
78752;SDS011;68072;51.688;7.842;2023-04-15T11:45:08;9.95;;;5.55;;
78752;SDS011;68072;51.688;7.842;2023-04-15T11:47:40;10.57;;;6.78;;
78752;SDS011;68072;51.688;7.842;2023-04-15T11:52:52;11.60;;;6.40;;
78752;SDS011;68072;51.688;7.842;2023-04-15T11:55:21;11.30;;;6.15;;
78752;SDS011;68072;51.688;7.842;2023-04-15T11:57:48;11.63;;;5.90;;
78752;SDS011;68072;51.688;7.842;2023-04-15T12:00:34;10.15;;;5.40;;
78752;SDS011;68072;51.688;7.842;2023-04-15T12:03:13;11.40;;;6.65;;
78752;SDS011;68072;51.688;7.842;2023-04-15T12:06:01;11.20;;;5.72;;
78752;SDS011;68072;51.688;7.842;2023-04-15T12:08:49;10.30;;;6.05;;
78752;SDS011;68072;51.688;7.842;2023-04-15T12:14:04;9.82;;;5.82;;
78752;SDS011;68072;51.688;7.842;2023-04-15T12:16:32;10.20;;;5.60;;
78752;SDS011;68072;51.688;7.842;2023-04-15T12:18:59;8.77;;;5.60;;
78752;SDS011;68072;51.688;7.842;2023-04-15T12:21:25;8.77;;;5.00;;
78752;SDS011;68072;51.688;7.842;2023-04-15T12:23:52;8.30;;;5.65;;
78752;SDS011;68072;51.688;7.842;2023-04-15T12:26:25;8.05;;;5.15;;
78752;SDS011;68072;51.688;7.842;2023-04-15T12:28:53;10.15;;;5.13;;
78752;SDS011;68072;51.688;7.842;2023-04-15T12:31:28;8.05;;;4.72;;
78752;SDS011;68072;51.688;7.842;2023-04-15T12:33:54;8.00;;;5.40;;
78752;SDS011;68072;51.688;7.842;2023-04-15T12:36:19;8.52;;;4.80;;
78752;SDS011;68072;51.688;7.842;2023-04-15T12:38:45;7.95;;;4.55;;
78752;SDS011;68072;51.688;7.842;2023-04-15T12:41:10;6.53;;;4.05;;
78752;SDS011;68072;51.688;7.842;2023-04-15T12:43:36;7.13;;;4.22;;
78752;SDS011;68072;51.688;7.842;2023-04-15T12:46:01;8.88;;;4.55;;
78752;SDS011;68072;51.688;7.842;2023-04-15T12:48:26;5.68;;;3.90;;
78752;SDS011;68072;51.688;7.842;2023-04-15T12:50:52;6.78;;;4.68;;
78752;SDS011;68072;51.688;7.842;2023-04-15T12:53:17;6.03;;;4.32;;
78752;SDS011;68072;51.688;7.842;2023-04-15T12:55:44;6.10;;;4.07;;
78752;SDS011;68072;51.688;7.842;2023-04-15T12:58:09;5.00;;;3.90;;
78752;SDS011;68072;51.688;7.842;2023-04-15T13:00:36;4.63;;;3.67;;
78752;SDS011;68072;51.688;7.842;2023-04-15T13:03:01;5.28;;;3.65;;
78752;SDS011;68072;51.688;7.842;2023-04-15T13:05:27;4.85;;;3.65;;
78752;SDS011;68072;51.688;7.842;2023-04-15T13:07:52;4.50;;;3.80;;
78752;SDS011;68072;51.688;7.842;2023-04-15T13:10:18;7.47;;;4.22;;
78752;SDS011;68072;51.688;7.842;2023-04-15T13:12:43;6.68;;;3.85;;
78752;SDS011;68072;51.688;7.842;2023-04-15T13:15:10;5.65;;;3.83;;
78752;SDS011;68072;51.688;7.842;2023-04-15T13:17:37;3.72;;;2.90;;
78752;SDS011;68072;51.688;7.842;2023-04-15T13:20:02;6.68;;;4.15;;
78752;SDS011;68072;51.688;7.842;2023-04-15T13:22:28;5.25;;;3.38;;
78752;SDS011;68072;51.688;7.842;2023-04-15T13:24:54;4.70;;;3.67;;
78752;SDS011;68072;51.688;7.842;2023-04-15T13:27:19;4.53;;;3.55;;
78752;SDS011;68072;51.688;7.842;2023-04-15T13:29:45;6.30;;;3.88;;
78752;SDS011;68072;51.688;7.842;2023-04-15T13:32:10;4.00;;;3.03;;
78752;SDS011;68072;51.688;7.842;2023-04-15T13:34:36;4.43;;;3.50;;
78752;SDS011;68072;51.688;7.842;2023-04-15T13:37:05;4.10;;;3.10;;
78752;SDS011;68072;51.688;7.842;2023-04-15T13:39:31;3.47;;;2.90;;
78752;SDS011;68072;51.688;7.842;2023-04-15T13:41:57;4.50;;;3.58;;
78752;SDS011;68072;51.688;7.842;2023-04-15T13:44:22;4.82;;;3.47;;
78752;SDS011;68072;51.688;7.842;2023-04-15T13:46:48;4.32;;;3.10;;
78752;SDS011;68072;51.688;7.842;2023-04-15T13:49:13;4.47;;;3.35;;
78752;SDS011;68072;51.688;7.842;2023-04-15T13:51:39;6.28;;;3.45;;
78752;SDS011;68072;51.688;7.842;2023-04-15T13:54:04;4.53;;;3.13;;
78752;SDS011;68072;51.688;7.842;2023-04-15T13:56:30;4.78;;;3.25;;
78752;SDS011;68072;51.688;7.842;2023-04-15T13:58:55;5.07;;;3.40;;
78752;SDS011;68072;51.688;7.842;2023-04-15T14:01:23;4.53;;;3.33;;
78752;SDS011;68072;51.688;7.842;2023-04-15T14:03:49;3.75;;;3.30;;
78752;SDS011;68072;51.688;7.842;2023-04-15T14:06:15;5.15;;;3.10;;
78752;SDS011;68072;51.688;7.842;2023-04-15T14:08:40;8.23;;;3.38;;
78752;SDS011;68072;51.688;7.842;2023-04-15T14:11:05;3.55;;;3.20;;
78752;SDS011;68072;51.688;7.842;2023-04-15T14:13:31;3.80;;;3.40;;
78752;SDS011;68072;51.688;7.842;2023-04-15T14:15:56;4.50;;;3.55;;
78752;SDS011;68072;51.688;7.842;2023-04-15T14:18:22;7.60;;;3.85;;
78752;SDS011;68072;51.688;7.842;2023-04-15T14:20:47;6.00;;;3.53;;
78752;SDS011;68072;51.688;7.842;2023-04-15T14:23:13;4.05;;;3.35;;
78752;SDS011;68072;51.688;7.842;2023-04-15T14:25:38;5.30;;;4.03;;
78752;SDS011;68072;51.688;7.842;2023-04-15T14:28:03;6.57;;;3.95;;
78752;SDS011;68072;51.688;7.842;2023-04-15T14:30:29;4.53;;;3.85;;
78752;SDS011;68072;51.688;7.842;2023-04-15T14:32:54;4.50;;;3.33;;
78752;SDS011;68072;51.688;7.842;2023-04-15T14:35:20;4.65;;;3.67;;
78752;SDS011;68072;51.688;7.842;2023-04-15T14:37:45;4.32;;;3.45;;
78752;SDS011;68072;51.688;7.842;2023-04-15T14:40:11;4.57;;;2.60;;
78752;SDS011;68072;51.688;7.842;2023-04-15T14:42:36;7.18;;;4.18;;
78752;SDS011;68072;51.688;7.842;2023-04-15T14:45:02;5.72;;;3.58;;
78752;SDS011;68072;51.688;7.842;2023-04-15T14:47:28;6.13;;;4.22;;
78752;SDS011;68072;51.688;7.842;2023-04-15T14:49:53;5.25;;;3.95;;
78752;SDS011;68072;51.688;7.842;2023-04-15T14:52:19;7.53;;;3.80;;
78752;SDS011;68072;51.688;7.842;2023-04-15T14:54:44;5.63;;;3.90;;
78752;SDS011;68072;51.688;7.842;2023-04-15T14:57:09;2.47;;;2.22;;
78752;SDS011;68072;51.688;7.842;2023-04-15T14:59:35;5.32;;;3.75;;
78752;SDS011;68072;51.688;7.842;2023-04-15T15:02:00;4.70;;;3.95;;
78752;SDS011;68072;51.688;7.842;2023-04-15T15:04:25;6.45;;;4.38;;